Time;durP1;ratioP1;P1;durP2;ratioP2;P2;SDS_P1;SDS_P2;PMS_P1;PMS_P2;Temp;Humidity;BMP_temperature;BMP_pressure;BME280_temperature;BME280_humidity;BME280_pressure;Samples;Min_cycle;Max_cycle;Signal;HPM_P1;HPM_P2
2022/10/23 00:01:36;;;;;;;1999.90;999.90;;;14.60;99.90;;;;;;5074253;28;20415;-65
2022/10/23 00:04:09;;;;;;;1999.90;999.90;;;14.60;99.90;;;;;;5074082;28;20420;-65
2022/10/23 00:06:35;;;;;;;1999.90;999.90;;;14.50;99.90;;;;;;5073882;28;20446;-65
2022/10/23 00:09:03;;;;;;;1999.90;999.90;;;14.40;99.90;;;;;;5073772;28;20419;-65
2022/10/23 00:11:29;;;;;;;1999.90;999.90;;;14.40;99.90;;;;;;5074071;28;20403;-65
2022/10/23 00:13:57;;;;;;;1999.90;999.90;;;14.30;99.90;;;;;;5074095;28;20522;-65
2022/10/23 00:16:23;;;;;;;1999.90;999.90;;;14.30;99.90;;;;;;5073817;28;20919;-66
2022/10/23 00:18:49;;;;;;;1999.90;999.90;;;14.30;99.90;;;;;;5073703;28;20411;-64
2022/10/23 00:21:16;;;;;;;1999.90;999.90;;;14.30;99.90;;;;;;5073762;28;20180;-64
2022/10/23 00:23:42;;;;;;;1999.90;999.90;;;14.30;99.90;;;;;;5073782;28;20281;-64
2022/10/23 00:26:10;;;;;;;1999.90;999.90;;;14.30;99.90;;;;;;5073670;28;21024;-65
2022/10/23 00:28:36;;;;;;;1999.90;999.90;;;14.30;99.90;;;;;;5073616;28;20196;-65
2022/10/23 00:31:03;;;;;;;1999.90;999.90;;;14.30;99.90;;;;;;5073815;28;20914;-65
2022/10/23 00:33:29;;;;;;;1999.90;999.90;;;14.30;99.90;;;;;;5073475;28;20399;-66
2022/10/23 00:35:54;;;;;;;1999.90;999.90;;;14.30;99.90;;;;;;5073417;28;20462;-65
2022/10/23 00:38:20;;;;;;;1999.90;999.90;;;14.40;99.90;;;;;;5073410;28;20179;-64
2022/10/23 00:40:45;;;;;;;1999.90;999.90;;;14.40;99.90;;;;;;5073507;28;20661;-65
2022/10/23 00:43:23;;;;;;;1999.90;999.90;;;14.40;99.90;;;;;;5073293;28;20171;-65
2022/10/23 00:45:49;;;;;;;1999.90;999.90;;;14.40;99.90;;;;;;5073268;28;20201;-64
2022/10/23 00:48:16;;;;;;;1999.90;999.90;;;14.30;99.90;;;;;;5073122;28;20397;-65
2022/10/23 00:50:42;;;;;;;1999.90;999.90;;;14.20;99.90;;;;;;5073263;28;20408;-66
2022/10/23 00:53:10;;;;;;;1999.90;999.90;;;14.20;99.90;;;;;;5073248;28;20408;-65
2022/10/23 00:55:37;;;;;;;1999.90;999.90;;;14.10;99.90;;;;;;5073268;28;20172;-65
2022/10/23 00:58:03;;;;;;;1999.90;999.90;;;14.10;99.90;;;;;;5072757;28;20421;-64
2022/10/23 01:00:40;;;;;;;1999.90;999.90;;;14.10;99.90;;;;;;5073065;28;20407;-65
2022/10/23 01:03:06;;;;;;;1999.90;999.90;;;14.00;99.90;;;;;;5072881;28;20416;-65
2022/10/23 01:05:43;;;;;;;1999.90;999.90;;;14.00;99.90;;;;;;5072811;28;20456;-65
2022/10/23 01:08:36;;;;;;;1999.90;999.90;;;13.90;99.90;;;;;;5072692;28;20411;-65
2022/10/23 01:11:17;;;;;;;1999.90;999.90;;;14.00;99.90;;;;;;5072883;28;20772;-65
2022/10/23 01:13:52;;;;;;;1999.90;999.90;;;13.90;99.90;;;;;;5072771;28;20459;-65
2022/10/23 01:16:28;;;;;;;1999.90;999.90;;;14.00;99.90;;;;;;5072737;28;20821;-65
2022/10/23 01:19:04;;;;;;;1999.90;999.90;;;13.90;99.90;;;;;;5072551;28;20919;-65
2022/10/23 01:21:52;;;;;;;1999.90;999.90;;;13.90;99.90;;;;;;5072417;28;20893;-65
2022/10/23 01:24:33;;;;;;;1999.90;999.90;;;13.90;99.90;;;;;;5065818;28;20474;-65
2022/10/23 01:27:30;;;;;;;1999.90;999.90;;;13.90;99.90;;;;;;5072419;28;20411;-65
2022/10/23 01:30:12;;;;;;;1999.90;999.90;;;13.90;99.90;;;;;;5072426;28;20411;-65
2022/10/23 01:32:52;;;;;;;1999.90;999.90;;;13.90;99.90;;;;;;5072713;28;20389;-65
2022/10/23 01:35:26;;;;;;;1999.90;999.90;;;13.90;99.90;;;;;;5072346;28;20433;-65
2022/10/23 01:38:17;;;;;;;1999.90;999.90;;;13.90;99.90;;;;;;5072234;28;20450;-65
2022/10/23 01:40:51;;;;;;;1999.90;999.90;;;13.80;99.90;;;;;;5072396;28;20388;-65
2022/10/23 01:43:22;;;;;;;1999.90;999.90;;;13.90;99.90;;;;;;5072313;28;20403;-65
2022/10/23 01:46:01;;;;;;;1999.90;999.90;;;13.90;99.90;;;;;;5072181;28;20969;-65
2022/10/23 01:48:29;;;;;;;1999.90;999.90;;;13.80;99.90;;;;;;5072060;28;20461;-65
2022/10/23 01:50:58;;;;;;;1999.90;999.90;;;13.80;99.90;;;;;;5072098;28;20405;-65
2022/10/23 01:53:29;;;;;;;1999.90;999.90;;;13.90;99.90;;;;;;5072069;28;20398;-64
2022/10/23 01:55:56;;;;;;;1999.90;999.90;;;13.90;99.90;;;;;;5072203;28;20551;-65
2022/10/23 01:58:25;;;;;;;1999.90;999.90;;;13.90;99.90;;;;;;5071997;28;20415;-65
2022/10/23 02:00:55;;;;;;;1999.90;999.90;;;13.90;99.90;;;;;;5072068;28;20406;-65
2022/10/23 02:03:23;;;;;;;1999.90;999.90;;;13.90;99.90;;;;;;5071942;28;20402;-65
2022/10/23 02:05:49;;;;;;;1999.90;999.90;;;13.90;99.90;;;;;;5072062;28;20454;-65
2022/10/23 02:08:14;;;;;;;1999.90;999.90;;;13.90;99.90;;;;;;5071868;28;20406;-65
2022/10/23 02:10:43;;;;;;;1999.90;999.90;;;13.90;99.90;;;;;;5072078;28;20466;-64
2022/10/23 02:13:32;;;;;;;1999.90;999.90;;;13.90;99.90;;;;;;5071951;28;20210;-64
2022/10/23 02:16:03;;;;;;;1999.90;999.90;;;13.90;99.90;;;;;;5071283;28;20845;-65
2022/10/23 02:18:31;;;;;;;1999.90;999.90;;;14.00;99.90;;;;;;5071756;28;20897;-65
2022/10/23 02:21:04;;;;;;;1999.90;999.90;;;13.90;99.90;;;;;;5071868;28;20414;-64
2022/10/23 02:23:43;;;;;;;1999.90;999.90;;;13.90;99.90;;;;;;5071680;28;20465;-65
2022/10/23 02:26:27;;;;;;;1999.90;999.90;;;14.00;99.90;;;;;;5071678;28;20447;-65
2022/10/23 02:29:04;;;;;;;1999.90;999.90;;;14.00;99.90;;;;;;5071629;28;20400;-65
2022/10/23 02:31:31;;;;;;;1999.90;999.90;;;14.10;99.90;;;;;;5071816;28;20456;-65
2022/10/23 02:33:56;;;;;;;1999.90;999.90;;;14.10;99.90;;;;;;5074775;28;20944;-65
2022/10/23 02:36:22;;;;;;;1999.90;999.90;;;14.10;99.90;;;;;;5075711;28;20413;-65
2022/10/23 02:38:47;;;;;;;1999.90;999.90;;;14.10;99.90;;;;;;5075623;28;20181;-65
2022/10/23 02:41:19;;;;;;;1999.90;999.90;;;14.10;99.90;;;;;;5075761;28;20261;-64
2022/10/23 02:43:53;;;;;;;1999.90;999.90;;;14.10;99.90;;;;;;5075697;28;20190;-65
2022/10/23 02:46:53;;;;;;;1999.90;999.90;;;14.10;99.90;;;;;;5075479;28;20533;-65
2022/10/23 02:49:24;;;;;;;1999.90;999.90;;;14.00;99.90;;;;;;5075404;28;20400;-65
2022/10/23 02:52:03;;;;;;;1999.90;999.90;;;14.10;99.90;;;;;;5075543;28;20458;-65
2022/10/23 02:55:16;;;;;;;1999.90;999.90;;;14.10;99.90;;;;;;5075360;28;20483;-65
2022/10/23 02:58:04;;;;;;;1999.90;999.90;;;14.00;99.90;;;;;;5065701;28;20948;-65
2022/10/23 03:00:32;;;;;;;1999.90;999.90;;;14.00;99.90;;;;;;5075307;28;20404;-65
2022/10/23 03:03:02;;;;;;;1999.90;999.90;;;14.00;99.90;;;;;;5075337;28;20400;-64
2022/10/23 03:05:35;;;;;;;1999.90;999.90;;;13.90;99.90;;;;;;5075127;28;20441;-65
2022/10/23 03:08:03;;;;;;;1999.90;999.90;;;14.00;99.90;;;;;;5074996;28;20559;-65
2022/10/23 03:10:29;;;;;;;1999.90;999.90;;;13.90;99.90;;;;;;5075394;28;20406;-64
2022/10/23 03:12:55;;;;;;;1999.90;999.90;;;13.90;99.90;;;;;;5075193;28;20418;-65
2022/10/23 03:15:20;;;;;;;1999.90;999.90;;;13.90;99.90;;;;;;5074955;28;20422;-65
2022/10/23 03:17:46;;;;;;;1999.90;999.90;;;14.00;99.90;;;;;;5074807;28;20254;-64
2022/10/23 03:20:11;;;;;;;1999.90;999.90;;;14.00;99.90;;;;;;5075062;28;20171;-65
2022/10/23 03:22:37;;;;;;;1999.90;999.90;;;14.00;99.90;;;;;;5074954;28;20178;-66
2022/10/23 03:25:03;;;;;;;1999.90;999.90;;;14.00;99.90;;;;;;5075176;28;20203;-64
2022/10/23 03:27:29;;;;;;;1999.90;999.90;;;13.90;99.90;;;;;;5074689;28;20190;-65
2022/10/23 03:29:54;;;;;;;1999.90;999.90;;;13.90;99.90;;;;;;5074743;28;20949;-64
2022/10/23 03:32:20;;;;;;;1999.90;999.90;;;13.90;99.90;;;;;;5075136;28;20244;-65
2022/10/23 03:34:45;;;;;;;1999.90;999.90;;;13.80;99.90;;;;;;5074696;28;20191;-65
2022/10/23 03:37:11;;;;;;;1999.90;999.90;;;13.90;99.90;;;;;;5074431;28;20624;-65
2022/10/23 03:39:37;;;;;;;1999.90;999.90;;;13.90;99.90;;;;;;5074601;28;20174;-64
2022/10/23 03:42:02;;;;;;;1999.90;999.90;;;13.90;99.90;;;;;;5074914;28;20187;-65
2022/10/23 03:44:30;;;;;;;1999.90;999.90;;;13.80;99.90;;;;;;5073871;28;20196;-65
2022/10/23 03:46:56;;;;;;;1999.90;999.90;;;13.90;99.90;;;;;;5074452;28;20695;-65
2022/10/23 03:49:21;;;;;;;1999.90;999.90;;;13.90;99.90;;;;;;5074421;28;20411;-64
2022/10/23 03:51:51;;;;;;;1999.90;999.90;;;13.80;99.90;;;;;;5074387;28;20396;-64
2022/10/23 03:54:19;;;;;;;1999.90;999.90;;;13.80;99.90;;;;;;5074267;28;20203;-65
2022/10/23 03:56:45;;;;;;;1999.90;999.90;;;13.80;99.90;;;;;;5074246;28;20419;-65
2022/10/23 03:59:10;;;;;;;1999.90;999.90;;;13.80;99.90;;;;;;5074237;28;20945;-64
2022/10/23 04:01:36;;;;;;;1999.90;999.90;;;13.80;99.90;;;;;;5074312;28;20197;-65
2022/10/23 04:04:02;;;;;;;1999.90;999.90;;;13.80;99.90;;;;;;5074192;28;20195;-64
2022/10/23 04:06:27;;;;;;;1999.90;999.90;;;13.80;99.90;;;;;;5073902;28;20647;-65
2022/10/23 04:08:53;;;;;;;1999.90;999.90;;;13.80;99.90;;;;;;5073995;28;20410;-65
2022/10/23 04:11:18;;;;;;;1999.90;999.90;;;13.80;99.90;;;;;;5074107;28;20167;-65
2022/10/23 04:13:44;;;;;;;1999.90;999.90;;;13.80;99.90;;;;;;5073930;28;20525;-64
2022/10/23 04:16:10;;;;;;;1999.90;999.90;;;13.80;99.90;;;;;;5073985;28;20163;-64
2022/10/23 04:18:35;;;;;;;1999.90;999.90;;;13.80;99.90;;;;;;5073746;28;20179;-65
2022/10/23 04:21:02;;;;;;;1999.90;999.90;;;13.80;99.90;;;;;;5073898;28;20181;-65
2022/10/23 04:23:27;;;;;;;1999.90;999.90;;;13.90;99.90;;;;;;5073745;28;20193;-64
2022/10/23 04:25:56;;;;;;;1999.90;999.90;;;13.80;99.90;;;;;;5073873;28;20504;-65
2022/10/23 04:28:22;;;;;;;1999.90;999.90;;;13.70;99.90;;;;;;5073593;28;20646;-64
2022/10/23 04:30:48;;;;;;;1999.90;999.90;;;13.70;99.90;;;;;;5073708;28;21001;-65
2022/10/23 04:33:14;;;;;;;1999.90;999.90;;;13.70;99.90;;;;;;5073859;28;20427;-65
2022/10/23 04:35:39;;;;;;;1999.90;999.90;;;13.60;99.90;;;;;;5073564;28;20168;-65
2022/10/23 04:38:05;;;;;;;1999.90;999.90;;;13.50;99.90;;;;;;5073322;28;20647;-65
2022/10/23 04:40:30;;;;;;;1999.90;999.90;;;13.50;99.90;;;;;;5073656;28;20253;-65
2022/10/23 04:42:56;;;;;;;1999.90;999.90;;;13.50;99.90;;;;;;5073383;28;20176;-64
2022/10/23 04:45:21;;;;;;;1999.90;999.90;;;13.50;99.90;;;;;;5086898;28;20580;-65
2022/10/23 04:47:47;;;;;;;1999.90;999.90;;;13.40;99.90;;;;;;5093310;28;20670;-65
2022/10/23 04:50:13;;;;;;;1999.90;999.90;;;13.50;99.90;;;;;;5093491;28;20224;-64
2022/10/23 04:52:39;;;;;;;1999.90;999.90;;;13.50;99.90;;;;;;5093567;28;20506;-64
2022/10/23 04:55:07;;;;;;;1999.90;999.90;;;13.40;99.90;;;;;;5092504;28;20469;-65
2022/10/23 04:57:32;;;;;;;1999.90;999.90;;;13.40;99.90;;;;;;5092965;28;20174;-66
2022/10/23 04:59:58;;;;;;;1999.90;999.90;;;13.40;99.90;;;;;;5093387;28;20413;-65
2022/10/23 05:02:23;;;;;;;1999.90;999.90;;;13.40;99.90;;;;;;5093361;28;20213;-64
2022/10/23 05:04:50;;;;;;;1999.90;999.90;;;13.40;99.90;;;;;;5093092;28;20203;-65
2022/10/23 05:07:15;;;;;;;1999.90;999.90;;;13.40;99.90;;;;;;5093089;28;20534;-64
2022/10/23 05:09:41;;;;;;;1999.90;999.90;;;13.40;99.90;;;;;;5093080;28;20482;-65
2022/10/23 05:12:07;;;;;;;1999.90;999.90;;;13.40;99.90;;;;;;5093140;28;20241;-65
2022/10/23 05:14:32;;;;;;;1999.90;999.90;;;13.30;99.90;;;;;;5093050;28;20232;-65
2022/10/23 05:17:18;;;;;;;1999.90;999.90;;;13.30;99.90;;;;;;5092892;28;20175;-64
2022/10/23 05:19:52;;;;;;;1999.90;999.90;;;13.30;99.90;;;;;;5092907;28;20170;-65
2022/10/23 05:22:19;;;;;;;1999.90;999.90;;;13.30;99.90;;;;;;5092999;28;20841;-64
2022/10/23 05:24:45;;;;;;;1999.90;999.90;;;13.20;99.90;;;;;;5092636;28;20879;-65
2022/10/23 05:27:10;;;;;;;1999.90;999.90;;;13.20;99.90;;;;;;5092627;28;20480;-64
2022/10/23 05:29:36;;;;;;;1999.90;999.90;;;13.20;99.90;;;;;;5092863;28;20160;-65
2022/10/23 05:32:04;;;;;;;1999.90;999.90;;;13.20;99.90;;;;;;5093045;28;20171;-65
2022/10/23 05:34:33;;;;;;;1999.90;999.90;;;13.20;99.90;;;;;;5092845;28;20179;-64
2022/10/23 05:37:00;;;;;;;1999.90;999.90;;;13.10;99.90;;;;;;5092508;28;20909;-65
2022/10/23 05:39:26;;;;;;;1999.90;999.90;;;13.20;99.90;;;;;;5092731;28;20901;-65
2022/10/23 05:41:53;;;;;;;1999.90;999.90;;;13.20;99.90;;;;;;5092526;28;20423;-64
2022/10/23 05:44:19;;;;;;;1999.90;999.90;;;13.20;99.90;;;;;;5092456;28;20715;-64
2022/10/23 05:46:45;;;;;;;1999.90;999.90;;;13.20;99.90;;;;;;5092275;28;20443;-64
2022/10/23 05:49:11;;;;;;;1999.90;999.90;;;13.20;99.90;;;;;;5092504;28;20405;-65
2022/10/23 05:51:38;;;;;;;1999.90;999.90;;;13.10;99.90;;;;;;5092444;28;20171;-65
2022/10/23 05:54:07;;;;;;;1999.90;999.90;;;13.20;99.90;;;;;;5092400;28;20278;-65
2022/10/23 05:56:42;;;;;;;1999.90;999.90;;;13.20;99.90;;;;;;5092166;28;20883;-65
2022/10/23 05:59:09;;;;;;;1999.90;999.90;;;13.20;99.90;;;;;;5092558;28;20819;-64
2022/10/23 06:01:35;;;;;;;1999.90;999.90;;;13.20;99.90;;;;;;5092399;28;20920;-65
2022/10/23 06:04:01;;;;;;;1999.90;999.90;;;13.10;99.90;;;;;;5092205;28;20422;-65
2022/10/23 06:06:27;;;;;;;1999.90;999.90;;;13.20;99.90;;;;;;5091911;28;20446;-65
2022/10/23 06:08:53;;;;;;;1999.90;999.90;;;13.20;99.90;;;;;;5091992;28;20413;-65
2022/10/23 06:11:19;;;;;;;1999.90;999.90;;;13.20;99.90;;;;;;5092133;28;20167;-65
2022/10/23 06:13:45;;;;;;;1999.90;999.90;;;13.20;99.90;;;;;;5092056;28;20413;-65
2022/10/23 06:16:23;;;;;;;1999.90;999.90;;;13.20;99.90;;;;;;5092237;28;20522;-65
2022/10/23 06:18:49;;;;;;;1999.90;999.90;;;13.30;99.90;;;;;;5091857;28;20421;-64
2022/10/23 06:21:15;;;;;;;1999.90;999.90;;;13.30;99.90;;;;;;5092095;28;20406;-65
2022/10/23 06:23:41;;;;;;;1999.90;999.90;;;13.30;99.90;;;;;;5091883;28;20252;-65
2022/10/23 06:26:09;;;;;;;1999.90;999.90;;;13.30;99.90;;;;;;5091851;28;21170;-65
2022/10/23 06:28:35;;;;;;;1999.90;999.90;;;13.30;99.90;;;;;;5091792;28;20402;-65
2022/10/23 06:31:09;;;;;;;1999.90;999.90;;;13.30;99.90;;;;;;5092012;28;20396;-65
2022/10/23 06:33:35;;;;;;;1999.90;999.90;;;13.30;99.90;;;;;;5091924;28;20426;-64
2022/10/23 06:36:02;;;;;;;1999.90;999.90;;;13.30;99.90;;;;;;5091804;28;20409;-65
2022/10/23 06:38:28;;;;;;;1999.90;999.90;;;13.40;99.90;;;;;;5091729;28;20415;-64
2022/10/23 06:40:56;;;;;;;1999.90;999.90;;;13.50;99.90;;;;;;5091994;28;20410;-65
2022/10/23 06:43:21;;;;;;;1999.90;999.90;;;13.50;99.90;;;;;;5091877;28;20219;-64
2022/10/23 06:45:48;;;;;;;1999.90;999.90;;;13.50;99.90;;;;;;5091774;28;20445;-65
2022/10/23 06:48:14;;;;;;;1999.90;999.90;;;13.60;99.90;;;;;;5091663;28;20172;-65
2022/10/23 06:50:39;;;;;;;1999.90;999.90;;;13.60;99.90;;;;;;5091814;28;20421;-65
2022/10/23 06:53:06;;;;;;;1999.90;999.90;;;13.70;99.90;;;;;;5091755;28;20912;-65
2022/10/23 06:55:32;;;;;;;1999.90;999.90;;;13.80;99.90;;;;;;5091845;28;20187;-64
2022/10/23 06:57:58;;;;;;;1999.90;999.90;;;13.80;99.90;;;;;;5091449;28;20405;-65
2022/10/23 07:00:24;;;;;;;1999.90;999.90;;;13.80;99.90;;;;;;5091895;28;20745;-65
2022/10/23 07:02:51;;;;;;;1999.90;999.90;;;13.80;99.90;;;;;;5091934;28;20405;-65
2022/10/23 07:05:17;;;;;;;1999.90;999.90;;;13.80;99.90;;;;;;5091509;28;20454;-65
2022/10/23 07:07:43;;;;;;;1999.90;999.90;;;13.80;99.90;;;;;;5091347;28;20408;-65
2022/10/23 07:10:09;;;;;;;1999.90;999.90;;;13.80;99.90;;;;;;5091614;28;20420;-65
2022/10/23 07:12:35;;;;;;;1999.90;999.90;;;13.80;99.90;;;;;;5091651;28;20197;-65
2022/10/23 07:15:00;;;;;;;1999.90;999.90;;;13.80;99.90;;;;;;5091550;28;20521;-65
2022/10/23 07:17:28;;;;;;;1999.90;999.90;;;13.90;99.90;;;;;;5091338;28;20189;-65
2022/10/23 07:19:54;;;;;;;1999.90;999.90;;;13.90;99.90;;;;;;5094217;28;20173;-64
2022/10/23 07:22:19;;;;;;;1999.90;999.90;;;13.90;99.90;;;;;;5095232;28;20402;-65
2022/10/23 07:24:45;;;;;;;1999.90;999.90;;;14.00;99.90;;;;;;5094951;28;20233;-66
2022/10/23 07:27:11;;;;;;;1999.90;999.90;;;13.90;99.90;;;;;;5094996;28;20167;-65
2022/10/23 07:29:37;;;;;;;1999.90;999.90;;;14.00;99.90;;;;;;5095102;28;20158;-65
2022/10/23 07:32:03;;;;;;;1999.90;999.90;;;14.00;99.90;;;;;;5095174;28;20726;-65
2022/10/23 07:34:30;;;;;;;1999.90;999.90;;;14.10;99.90;;;;;;5094960;28;20482;-64
2022/10/23 07:36:56;;;;;;;1999.90;999.90;;;14.20;99.90;;;;;;5092448;28;20404;-66
2022/10/23 07:39:21;;;;;;;1999.90;999.90;;;14.20;99.90;;;;;;5093504;28;20784;-66
2022/10/23 07:41:47;;;;;;;1999.90;999.90;;;14.30;99.90;;;;;;5094311;28;20539;-65
2022/10/23 07:44:13;;;;;;;1999.90;999.90;;;14.30;99.90;;;;;;5094027;28;20223;-65
2022/10/23 07:46:39;;;;;;;1999.90;999.90;;;14.30;99.90;;;;;;5093733;28;21092;-65
2022/10/23 07:49:04;;;;;;;1999.90;999.90;;;14.40;99.90;;;;;;5093848;28;20649;-65
2022/10/23 07:51:30;;;;;;;1999.90;999.90;;;14.40;99.90;;;;;;5093885;28;20171;-65
2022/10/23 07:53:55;;;;;;;1999.90;999.90;;;14.40;99.90;;;;;;5094099;28;20651;-70
2022/10/23 07:56:28;;;;;;;1999.90;999.90;;;14.50;99.90;;;;;;5093846;28;20303;-65
2022/10/23 07:58:54;;;;;;;1999.90;999.90;;;14.60;99.90;;;;;;5093584;28;20185;-66
2022/10/23 08:01:36;;;;;;;1999.90;999.90;;;14.70;99.90;;;;;;5094291;28;20897;-66
2022/10/23 08:04:02;;;;;;;1999.90;999.90;;;14.90;99.90;;;;;;5094228;28;20420;-66
2022/10/23 08:06:28;;;;;;;1999.90;999.90;;;15.00;99.90;;;;;;5094708;28;20504;-67
2022/10/23 08:08:54;;;;;;;1999.90;999.90;;;15.10;99.90;;;;;;5094442;28;20401;-66
2022/10/23 08:11:25;;;;;;;1999.90;999.90;;;15.30;99.90;;;;;;5094571;28;20159;-67
2022/10/23 08:13:52;;;;;;;1999.90;999.90;;;15.40;99.90;;;;;;5094274;28;20249;-68
2022/10/23 08:16:18;;;;;;;1999.90;999.90;;;15.40;99.90;;;;;;5093578;28;20474;-66
2022/10/23 08:18:44;;;;;;;1999.90;999.90;;;15.60;99.90;;;;;;5093877;28;20404;-66
2022/10/23 08:21:11;;;;;;;1999.90;999.90;;;15.70;99.90;;;;;;5094052;28;20182;-67
2022/10/23 08:23:36;;;;;;;1999.90;999.90;;;15.90;99.90;;;;;;5093165;28;20937;-66
2022/10/23 08:26:04;;;;;;;1999.90;999.90;;;16.00;99.90;;;;;;5093520;28;20484;-66
2022/10/23 08:28:31;;;;;;;1999.90;999.90;;;16.10;99.90;;;;;;5092394;28;20911;-66
2022/10/23 08:30:56;;;;;;;1999.90;999.90;;;16.20;99.90;;;;;;5093627;28;20897;-66
2022/10/23 08:33:22;;;;;;;1999.90;999.90;;;16.30;99.90;;;;;;5093777;28;20409;-66
2022/10/23 08:35:48;;;;;;;1999.90;999.90;;;16.30;99.90;;;;;;5093447;28;20230;-65
2022/10/23 08:38:13;;;;;;;1999.90;999.90;;;16.40;99.90;;;;;;5093153;28;20407;-65
2022/10/23 08:40:44;;;;;;;1999.90;999.90;;;16.50;99.90;;;;;;5093733;28;20174;-65
2022/10/23 08:43:10;;;;;;;1999.90;999.90;;;16.50;99.90;;;;;;5093281;28;20266;-65
2022/10/23 08:45:41;;;;;;;1999.90;999.90;;;16.60;99.90;;;;;;5092963;28;20557;-65
2022/10/23 08:48:21;;;;;;;1999.90;999.90;;;16.60;99.90;;;;;;5093248;28;20165;-65
2022/10/23 08:50:53;;;;;;;1999.90;999.90;;;16.60;99.90;;;;;;5093485;28;20392;-65
2022/10/23 08:53:44;;;;;;;1999.90;999.90;;;16.60;99.90;;;;;;5093417;28;20906;-67
2022/10/23 08:56:26;;;;;;;1999.90;999.90;;;16.70;99.90;;;;;;5089284;28;20428;-66
2022/10/23 08:59:19;;;;;;;1999.90;999.90;;;16.80;99.90;;;;;;5091468;28;20414;-66
2022/10/23 09:02:07;;;;;;;1999.90;999.90;;;16.90;99.90;;;;;;5092765;28;20405;-66
2022/10/23 09:04:33;;;;;;;1999.90;999.90;;;17.10;99.90;;;;;;5092850;28;20974;-66
2022/10/23 09:07:25;;;;;;;1999.90;999.90;;;17.30;99.90;;;;;;5092405;28;20459;-65
2022/10/23 09:10:18;;;;;;;1999.90;999.90;;;17.40;99.90;;;;;;5093341;28;20411;-65
2022/10/23 09:12:44;;;;;;;1999.90;999.90;;;17.60;99.90;;;;;;5092729;28;20400;-66
2022/10/23 09:15:27;;;;;;;1999.90;999.90;;;17.70;99.90;;;;;;5091945;28;20428;-66
2022/10/23 09:17:59;;;;;;;1999.90;999.90;;;17.70;99.90;;;;;;5091625;28;20162;-65
2022/10/23 09:20:35;;;;;;;1999.90;999.90;;;17.60;99.90;;;;;;5092464;28;20465;-65
2022/10/23 09:23:22;;;;;;;1999.90;999.90;;;17.60;99.90;;;;;;5091623;28;20400;-65
2022/10/23 09:25:54;;;;;;;1999.90;999.90;;;17.60;99.90;;;;;;5092448;28;20833;-65
2022/10/23 09:28:21;;;;;;;1999.90;999.90;;;17.70;99.90;;;;;;5090321;28;20538;-65
2022/10/23 09:30:48;;;;;;;1999.90;999.90;;;17.70;99.90;;;;;;5092333;28;20409;-66
2022/10/23 09:33:16;;;;;;;1999.90;999.90;;;17.80;99.90;;;;;;5092048;28;20444;-66
2022/10/23 09:35:57;;;;;;;1999.90;999.90;;;17.90;99.90;;;;;;5091513;28;20920;-65
2022/10/23 09:38:34;;;;;;;1999.90;999.90;;;17.90;99.90;;;;;;5091357;28;20977;-66
2022/10/23 09:41:16;;;;;;;1999.90;999.90;;;17.90;99.90;;;;;;5092006;28;20422;-66
2022/10/23 09:43:42;;;;;;;1999.90;999.90;;;18.00;99.90;;;;;;5091256;28;20829;-66
2022/10/23 09:46:09;;;;;;;1999.90;999.90;;;18.00;99.90;;;;;;5091688;28;20460;-67
2022/10/23 09:48:35;;;;;;;1999.90;999.90;;;17.90;99.90;;;;;;5091354;28;20404;-66
2022/10/23 09:51:16;;;;;;;1999.90;999.90;;;18.00;99.90;;;;;;5092416;28;20995;-66
2022/10/23 09:53:59;;;;;;;1999.90;999.90;;;18.00;99.90;;;;;;5094150;28;20425;-66
2022/10/23 09:56:26;;;;;;;1999.90;999.90;;;18.00;99.90;;;;;;5092539;28;20414;-66
2022/10/23 09:59:18;;;;;;;1999.90;999.90;;;17.90;99.90;;;;;;5091744;28;20528;-66
2022/10/23 10:01:55;;;;;;;1999.90;999.90;;;17.90;99.90;;;;;;5092951;28;20840;-66
2022/10/23 10:04:34;;;;;;;1999.90;999.90;;;17.90;99.90;;;;;;5092283;28;21202;-66
2022/10/23 10:07:02;;;;;;;1999.90;999.90;;;17.90;99.90;;;;;;5091706;28;20459;-66
2022/10/23 10:09:28;;;;;;;1999.90;999.90;;;17.80;99.90;;;;;;5091863;28;20447;-66
2022/10/23 10:12:13;;;;;;;1999.90;999.90;;;17.80;99.90;;;;;;5091751;28;20404;-66
2022/10/23 10:14:47;;;;;;;1999.90;999.90;;;17.70;99.90;;;;;;5091299;28;20429;-67
2022/10/23 10:17:36;;;;;;;1999.90;999.90;;;17.80;99.90;;;;;;5090466;28;20449;-67
2022/10/23 10:20:33;;;;;;;1999.90;999.90;;;17.90;99.90;;;;;;5091309;28;20401;-67
2022/10/23 10:23:28;;;;;;;1999.90;999.90;;;17.90;99.90;;;;;;5091280;28;20415;-66
2022/10/23 10:26:13;;;;;;;1999.90;999.90;;;18.00;99.90;;;;;;5085137;28;20464;-66
2022/10/23 10:29:06;;;;;;;1999.90;999.90;;;18.00;99.90;;;;;;5090666;28;20405;-65
2022/10/23 10:31:55;;;;;;;1999.90;999.90;;;18.00;99.90;;;;;;5091614;28;20775;-65
2022/10/23 10:34:36;;;;;;;1999.90;999.90;;;18.00;99.90;;;;;;5091387;28;20431;-65
2022/10/23 10:37:20;;;;;;;1999.90;999.90;;;18.00;99.90;;;;;;5090168;28;20399;-65
2022/10/23 10:40:07;;;;;;;1999.90;999.90;;;17.90;99.90;;;;;;5091218;28;20407;-65
2022/10/23 10:42:57;;;;;;;1999.90;999.90;;;17.90;99.90;;;;;;5091011;28;20960;-65
2022/10/23 10:45:37;;;;;;;1999.90;999.90;;;17.90;99.90;;;;;;5090861;28;21002;-65
2022/10/23 10:48:11;;;;;;;1999.90;999.90;;;17.90;99.90;;;;;;5090720;28;20401;-65
2022/10/23 10:50:49;;;;;;;1999.90;999.90;;;18.00;99.90;;;;;;5090784;28;20431;-65
2022/10/23 10:53:42;;;;;;;1999.90;999.90;;;18.00;99.90;;;;;;5091608;28;20405;-66
2022/10/23 10:56:13;;;;;;;1999.90;999.90;;;18.00;99.90;;;;;;5093464;28;20400;-66
2022/10/23 10:58:44;;;;;;;1999.90;999.90;;;18.10;99.90;;;;;;5094063;28;20506;-66
2022/10/23 11:01:26;;;;;;;1999.90;999.90;;;18.10;99.90;;;;;;5095027;28;20398;-66
2022/10/23 11:04:02;;;;;;;1999.90;999.90;;;18.10;99.90;;;;;;5094638;28;20419;-66
2022/10/23 11:06:34;;;;;;;1999.90;999.90;;;18.00;99.90;;;;;;5093966;28;20479;-65
2022/10/23 11:09:09;;;;;;;1999.90;999.90;;;18.00;99.90;;;;;;5094397;28;20787;-66
2022/10/23 11:11:39;;;;;;;1999.90;999.90;;;18.00;99.90;;;;;;5094801;28;20455;-66
2022/10/23 11:14:13;;;;;;;1999.90;999.90;;;18.10;99.90;;;;;;5094321;28;20847;-65
2022/10/23 11:16:41;;;;;;;1999.90;999.90;;;18.10;99.90;;;;;;5094080;28;20399;-65
2022/10/23 11:19:31;;;;;;;1999.90;999.90;;;18.10;99.90;;;;;;5094226;28;20400;-66
2022/10/23 11:22:17;;;;;;;1999.90;999.90;;;18.20;99.90;;;;;;5094697;28;20904;-65
2022/10/23 11:24:45;;;;;;;1999.90;999.90;;;18.30;99.90;;;;;;5094005;28;20440;-65
2022/10/23 11:27:43;;;;;;;1999.90;999.90;;;18.50;99.90;;;;;;5093453;28;20443;-65
2022/10/23 11:30:37;;;;;;;1999.90;999.90;;;18.70;99.90;;;;;;5094315;28;20402;-65
2022/10/23 11:33:23;;;;;;;1999.90;999.90;;;19.20;99.90;;;;;;5094560;28;20389;-65
2022/10/23 11:36:42;;;;;;;1999.90;999.90;;;19.70;99.90;;;;;;5093766;28;20822;-66
2022/10/23 11:39:19;;;;;;;1999.90;999.90;;;20.10;99.90;;;;;;5051261;28;21026;-66
2022/10/23 11:41:57;;;;;;;1999.90;999.90;;;20.50;99.90;;;;;;5093717;28;20419;-66
2022/10/23 11:44:47;;;;;;;1999.90;999.90;;;20.80;99.90;;;;;;5093627;28;20500;-65
2022/10/23 11:47:37;;;;;;;1999.90;999.90;;;21.30;99.90;;;;;;5093429;28;20448;-65
2022/10/23 11:50:05;;;;;;;1999.90;999.90;;;21.80;99.90;;;;;;5093689;28;20429;-66
2022/10/23 11:52:32;;;;;;;1999.90;999.90;;;22.20;99.90;;;;;;5094137;28;20411;-66
2022/10/23 11:55:23;;;;;;;1999.90;999.90;;;22.40;99.90;;;;;;5093903;28;20451;-66
2022/10/23 11:58:21;;;;;;;1999.90;999.90;;;22.60;99.90;;;;;;5092548;28;20432;-65
2022/10/23 12:01:15;;;;;;;1999.90;999.90;;;22.70;99.90;;;;;;5085745;28;20415;-65
2022/10/23 12:03:54;;;;;;;1999.90;999.90;;;22.60;99.90;;;;;;5093468;28;20510;-66
2022/10/23 12:06:39;;;;;;;1999.90;999.90;;;22.70;99.90;;;;;;5092891;28;20448;-65
2022/10/23 12:09:20;;;;;;;1999.90;999.90;;;22.90;99.90;;;;;;5093792;28;20797;-65
2022/10/23 12:11:50;;;;;;;1999.90;999.90;;;23.00;99.90;;;;;;5093268;28;20400;-65
2022/10/23 12:14:25;;;;;;;1999.90;999.90;;;23.10;99.90;;;;;;5093495;28;20941;-65
2022/10/23 12:16:51;;;;;;;1999.90;999.90;;;23.00;99.90;;;;;;5093206;28;20409;-66
2022/10/23 12:19:22;;;;;;;1999.90;999.90;;;23.00;99.90;;;;;;5092984;28;20405;-66
2022/10/23 12:21:54;;;;;;;1999.90;999.90;;;23.00;99.90;;;;;;5093669;28;20534;-65